sensor_id;sensor_type;location;lat;lon;timestamp;temperature;humidity
16980;DHT22;42288;52.182;21.156;2022-10-31T00:00:18;10.50;97.30
16980;DHT22;42288;52.182;21.156;2022-10-31T00:02:44;10.40;97.40
16980;DHT22;42288;52.182;21.156;2022-10-31T00:05:10;10.40;97.40
16980;DHT22;42288;52.182;21.156;2022-10-31T00:07:35;10.30;98.10
16980;DHT22;42288;52.182;21.156;2022-10-31T00:10:00;10.40;97.90
16980;DHT22;42288;52.182;21.156;2022-10-31T00:12:26;10.50;97.70
16980;DHT22;42288;52.182;21.156;2022-10-31T00:14:52;10.50;97.40
16980;DHT22;42288;52.182;21.156;2022-10-31T00:17:17;10.50;97.10
16980;DHT22;42288;52.182;21.156;2022-10-31T00:19:43;10.50;97.10
16980;DHT22;42288;52.182;21.156;2022-10-31T00:22:08;10.60;97.10
16980;DHT22;42288;52.182;21.156;2022-10-31T00:24:34;10.50;97.10
16980;DHT22;42288;52.182;21.156;2022-10-31T00:26:59;10.60;97.00
16980;DHT22;42288;52.182;21.156;2022-10-31T00:29:25;10.50;96.90
16980;DHT22;42288;52.182;21.156;2022-10-31T00:31:52;10.50;96.80
16980;DHT22;42288;52.182;21.156;2022-10-31T00:34:17;10.50;96.80
16980;DHT22;42288;52.182;21.156;2022-10-31T00:36:43;10.50;96.90
16980;DHT22;42288;52.182;21.156;2022-10-31T00:39:08;10.40;96.80
16980;DHT22;42288;52.182;21.156;2022-10-31T00:41:34;10.40;97.00
16980;DHT22;42288;52.182;21.156;2022-10-31T00:43:59;10.40;96.90
16980;DHT22;42288;52.182;21.156;2022-10-31T00:46:25;10.40;96.70
16980;DHT22;42288;52.182;21.156;2022-10-31T00:48:50;10.50;96.80
16980;DHT22;42288;52.182;21.156;2022-10-31T00:51:16;10.40;96.80
16980;DHT22;42288;52.182;21.156;2022-10-31T00:53:41;10.40;96.80
16980;DHT22;42288;52.182;21.156;2022-10-31T00:56:07;10.40;96.90
16980;DHT22;42288;52.182;21.156;2022-10-31T00:58:33;10.40;96.90
16980;DHT22;42288;52.182;21.156;2022-10-31T01:00:58;10.40;96.80
16980;DHT22;42288;52.182;21.156;2022-10-31T01:03:26;10.30;96.70
16980;DHT22;42288;52.182;21.156;2022-10-31T01:06:06;10.30;96.70
16980;DHT22;42288;52.182;21.156;2022-10-31T01:08:33;10.20;96.60
16980;DHT22;42288;52.182;21.156;2022-10-31T01:13:32;10.10;97.00
16980;DHT22;42288;52.182;21.156;2022-10-31T01:15:59;10.10;97.00
16980;DHT22;42288;52.182;21.156;2022-10-31T01:18:25;10.10;96.80
16980;DHT22;42288;52.182;21.156;2022-10-31T01:21:04;10.00;96.90
16980;DHT22;42288;52.182;21.156;2022-10-31T01:23:30;10.10;96.90
16980;DHT22;42288;52.182;21.156;2022-10-31T01:26:11;10.10;96.90
16980;DHT22;42288;52.182;21.156;2022-10-31T01:28:40;10.00;96.90
16980;DHT22;42288;52.182;21.156;2022-10-31T01:31:08;10.10;96.80
16980;DHT22;42288;52.182;21.156;2022-10-31T01:33:35;10.00;96.60
16980;DHT22;42288;52.182;21.156;2022-10-31T01:36:00;10.10;96.80
16980;DHT22;42288;52.182;21.156;2022-10-31T01:38:26;10.10;96.60
16980;DHT22;42288;52.182;21.156;2022-10-31T01:40:52;10.00;96.60
16980;DHT22;42288;52.182;21.156;2022-10-31T01:43:18;9.90;97.30
16980;DHT22;42288;52.182;21.156;2022-10-31T01:45:50;10.00;96.90
16980;DHT22;42288;52.182;21.156;2022-10-31T01:48:20;9.90;97.40
16980;DHT22;42288;52.182;21.156;2022-10-31T01:50:51;9.90;97.30
16980;DHT22;42288;52.182;21.156;2022-10-31T01:53:18;9.80;97.40
16980;DHT22;42288;52.182;21.156;2022-10-31T01:55:45;9.80;97.40
16980;DHT22;42288;52.182;21.156;2022-10-31T01:58:14;9.90;97.30
16980;DHT22;42288;52.182;21.156;2022-10-31T02:00:43;9.90;97.10
16980;DHT22;42288;52.182;21.156;2022-10-31T02:03:10;9.90;96.90
16980;DHT22;42288;52.182;21.156;2022-10-31T02:05:36;9.80;97.10
16980;DHT22;42288;52.182;21.156;2022-10-31T02:08:19;9.70;97.20
16980;DHT22;42288;52.182;21.156;2022-10-31T02:10:46;9.70;97.40
16980;DHT22;42288;52.182;21.156;2022-10-31T02:13:12;9.70;97.50
16980;DHT22;42288;52.182;21.156;2022-10-31T02:15:39;9.70;97.40
16980;DHT22;42288;52.182;21.156;2022-10-31T02:18:06;9.70;97.40
16980;DHT22;42288;52.182;21.156;2022-10-31T02:26:45;9.70;97.00
16980;DHT22;42288;52.182;21.156;2022-10-31T02:31:58;9.50;97.00
16980;DHT22;42288;52.182;21.156;2022-10-31T02:34:35;9.60;97.10
16980;DHT22;42288;52.182;21.156;2022-10-31T02:37:11;9.60;97.00
16980;DHT22;42288;52.182;21.156;2022-10-31T02:39:44;9.60;97.10
16980;DHT22;42288;52.182;21.156;2022-10-31T02:42:49;9.50;96.90
16980;DHT22;42288;52.182;21.156;2022-10-31T02:45:27;9.50;97.10
16980;DHT22;42288;52.182;21.156;2022-10-31T02:47:57;9.50;96.90
16980;DHT22;42288;52.182;21.156;2022-10-31T02:50:28;9.50;96.90
16980;DHT22;42288;52.182;21.156;2022-10-31T02:52:54;9.50;97.10
16980;DHT22;42288;52.182;21.156;2022-10-31T02:57:48;9.60;96.70
16980;DHT22;42288;52.182;21.156;2022-10-31T03:00:15;9.60;96.60
16980;DHT22;42288;52.182;21.156;2022-10-31T03:05:50;9.70;96.80
16980;DHT22;42288;52.182;21.156;2022-10-31T03:08:34;9.70;96.50
16980;DHT22;42288;52.182;21.156;2022-10-31T03:11:03;9.70;96.30
16980;DHT22;42288;52.182;21.156;2022-10-31T03:13:32;9.60;96.60
16980;DHT22;42288;52.182;21.156;2022-10-31T03:16:22;9.70;96.60
16980;DHT22;42288;52.182;21.156;2022-10-31T03:19:02;9.50;96.60
16980;DHT22;42288;52.182;21.156;2022-10-31T03:21:40;9.60;97.00
16980;DHT22;42288;52.182;21.156;2022-10-31T03:24:09;9.50;97.10
16980;DHT22;42288;52.182;21.156;2022-10-31T03:26:39;9.50;97.30
16980;DHT22;42288;52.182;21.156;2022-10-31T03:29:08;9.50;97.30
16980;DHT22;42288;52.182;21.156;2022-10-31T03:32:03;9.60;97.00
16980;DHT22;42288;52.182;21.156;2022-10-31T03:34:30;9.60;96.70
16980;DHT22;42288;52.182;21.156;2022-10-31T03:36:59;9.60;96.80
16980;DHT22;42288;52.182;21.156;2022-10-31T03:39:27;9.50;97.00
16980;DHT22;42288;52.182;21.156;2022-10-31T03:42:05;9.60;97.00
16980;DHT22;42288;52.182;21.156;2022-10-31T03:44:32;9.50;97.30
16980;DHT22;42288;52.182;21.156;2022-10-31T03:47:00;9.60;97.50
16980;DHT22;42288;52.182;21.156;2022-10-31T03:49:27;9.60;97.40
16980;DHT22;42288;52.182;21.156;2022-10-31T03:52:18;9.50;97.20
16980;DHT22;42288;52.182;21.156;2022-10-31T03:54:50;9.60;97.40
16980;DHT22;42288;52.182;21.156;2022-10-31T04:00:15;9.60;97.40
16980;DHT22;42288;52.182;21.156;2022-10-31T04:02:47;9.60;97.50
16980;DHT22;42288;52.182;21.156;2022-10-31T04:05:16;9.60;97.70
16980;DHT22;42288;52.182;21.156;2022-10-31T04:07:45;9.60;97.70
16980;DHT22;42288;52.182;21.156;2022-10-31T04:10:14;9.40;98.00
16980;DHT22;42288;52.182;21.156;2022-10-31T04:12:43;9.50;98.20
16980;DHT22;42288;52.182;21.156;2022-10-31T04:15:09;9.30;98.00
16980;DHT22;42288;52.182;21.156;2022-10-31T04:17:39;9.30;98.20
16980;DHT22;42288;52.182;21.156;2022-10-31T04:20:06;9.40;98.40
16980;DHT22;42288;52.182;21.156;2022-10-31T04:22:32;9.20;98.10
16980;DHT22;42288;52.182;21.156;2022-10-31T04:24:57;9.30;98.20
16980;DHT22;42288;52.182;21.156;2022-10-31T04:27:22;9.30;97.90
16980;DHT22;42288;52.182;21.156;2022-10-31T04:29:48;9.20;97.90
16980;DHT22;42288;52.182;21.156;2022-10-31T04:32:13;9.30;97.80
16980;DHT22;42288;52.182;21.156;2022-10-31T04:34:39;9.30;97.80
16980;DHT22;42288;52.182;21.156;2022-10-31T04:37:04;9.20;97.80
16980;DHT22;42288;52.182;21.156;2022-10-31T04:39:30;9.20;97.80
16980;DHT22;42288;52.182;21.156;2022-10-31T04:41:55;9.20;97.80
16980;DHT22;42288;52.182;21.156;2022-10-31T04:44:21;9.30;97.60
16980;DHT22;42288;52.182;21.156;2022-10-31T04:46:46;9.20;97.30
16980;DHT22;42288;52.182;21.156;2022-10-31T04:49:12;9.20;97.40
16980;DHT22;42288;52.182;21.156;2022-10-31T04:51:38;9.30;97.60
16980;DHT22;42288;52.182;21.156;2022-10-31T04:54:03;9.30;97.40
16980;DHT22;42288;52.182;21.156;2022-10-31T04:56:29;9.20;97.40
16980;DHT22;42288;52.182;21.156;2022-10-31T04:58:54;9.10;97.60
16980;DHT22;42288;52.182;21.156;2022-10-31T05:01:20;8.90;97.70
16980;DHT22;42288;52.182;21.156;2022-10-31T05:03:45;8.90;98.10
16980;DHT22;42288;52.182;21.156;2022-10-31T05:06:11;8.80;98.20
16980;DHT22;42288;52.182;21.156;2022-10-31T05:08:36;9.00;98.40
16980;DHT22;42288;52.182;21.156;2022-10-31T05:11:03;9.10;98.20
16980;DHT22;42288;52.182;21.156;2022-10-31T05:13:29;9.20;98.00
16980;DHT22;42288;52.182;21.156;2022-10-31T05:15:55;9.20;98.00
16980;DHT22;42288;52.182;21.156;2022-10-31T05:18:20;9.30;98.10
16980;DHT22;42288;52.182;21.156;2022-10-31T05:20:46;9.30;97.90
16980;DHT22;42288;52.182;21.156;2022-10-31T05:23:11;9.30;97.60
16980;DHT22;42288;52.182;21.156;2022-10-31T05:25:37;9.20;97.90
16980;DHT22;42288;52.182;21.156;2022-10-31T05:28:02;8.80;97.90
16980;DHT22;42288;52.182;21.156;2022-10-31T05:30:30;9.00;98.70
16980;DHT22;42288;52.182;21.156;2022-10-31T05:32:57;9.10;98.60
16980;DHT22;42288;52.182;21.156;2022-10-31T05:35:31;9.10;98.40
16980;DHT22;42288;52.182;21.156;2022-10-31T05:37:58;9.00;98.60
16980;DHT22;42288;52.182;21.156;2022-10-31T05:40:25;9.30;98.50
16980;DHT22;42288;52.182;21.156;2022-10-31T05:42:52;9.40;98.20
16980;DHT22;42288;52.182;21.156;2022-10-31T05:45:19;9.30;98.10
16980;DHT22;42288;52.182;21.156;2022-10-31T05:47:58;9.20;99.00
16980;DHT22;42288;52.182;21.156;2022-10-31T05:50:25;9.10;99.60
16980;DHT22;42288;52.182;21.156;2022-10-31T05:52:56;9.30;99.80
16980;DHT22;42288;52.182;21.156;2022-10-31T05:55:22;9.30;99.70
16980;DHT22;42288;52.182;21.156;2022-10-31T05:57:48;9.30;99.80
16980;DHT22;42288;52.182;21.156;2022-10-31T06:00:13;9.30;99.80
16980;DHT22;42288;52.182;21.156;2022-10-31T06:02:39;9.20;99.80
16980;DHT22;42288;52.182;21.156;2022-10-31T06:05:04;9.30;99.90
16980;DHT22;42288;52.182;21.156;2022-10-31T06:07:34;9.40;99.70
16980;DHT22;42288;52.182;21.156;2022-10-31T06:10:00;9.40;99.10
16980;DHT22;42288;52.182;21.156;2022-10-31T06:12:25;9.10;99.00
16980;DHT22;42288;52.182;21.156;2022-10-31T06:14:51;8.70;99.40
16980;DHT22;42288;52.182;21.156;2022-10-31T06:17:16;8.50;99.90
16980;DHT22;42288;52.182;21.156;2022-10-31T06:19:42;8.50;99.90
16980;DHT22;42288;52.182;21.156;2022-10-31T06:22:07;8.70;99.90
16980;DHT22;42288;52.182;21.156;2022-10-31T06:24:33;8.80;99.90
16980;DHT22;42288;52.182;21.156;2022-10-31T06:26:59;9.00;99.90
16980;DHT22;42288;52.182;21.156;2022-10-31T06:29:24;8.80;99.90
16980;DHT22;42288;52.182;21.156;2022-10-31T06:31:53;9.10;99.90
16980;DHT22;42288;52.182;21.156;2022-10-31T06:34:18;9.30;99.90
16980;DHT22;42288;52.182;21.156;2022-10-31T06:36:45;9.10;99.90
16980;DHT22;42288;52.182;21.156;2022-10-31T06:39:11;9.40;99.90
16980;DHT22;42288;52.182;21.156;2022-10-31T06:41:36;9.40;99.90
16980;DHT22;42288;52.182;21.156;2022-10-31T06:44:02;9.60;99.90
16980;DHT22;42288;52.182;21.156;2022-10-31T06:46:28;9.60;99.90
16980;DHT22;42288;52.182;21.156;2022-10-31T06:48:53;9.60;99.90
16980;DHT22;42288;52.182;21.156;2022-10-31T06:51:19;9.90;99.90
16980;DHT22;42288;52.182;21.156;2022-10-31T06:53:44;10.00;99.90
16980;DHT22;42288;52.182;21.156;2022-10-31T06:56:10;10.20;99.90
16980;DHT22;42288;52.182;21.156;2022-10-31T06:58:35;10.40;99.90
16980;DHT22;42288;52.182;21.156;2022-10-31T07:01:01;10.60;99.90
16980;DHT22;42288;52.182;21.156;2022-10-31T07:03:26;10.60;99.90
16980;DHT22;42288;52.182;21.156;2022-10-31T07:05:52;10.70;99.90
16980;DHT22;42288;52.182;21.156;2022-10-31T07:08:17;10.90;99.90
16980;DHT22;42288;52.182;21.156;2022-10-31T07:10:43;11.00;99.90
16980;DHT22;42288;52.182;21.156;2022-10-31T07:13:15;11.00;99.90
16980;DHT22;42288;52.182;21.156;2022-10-31T07:15:42;10.80;99.90
16980;DHT22;42288;52.182;21.156;2022-10-31T07:18:09;11.10;99.90
16980;DHT22;42288;52.182;21.156;2022-10-31T07:20:35;11.20;99.90
16980;DHT22;42288;52.182;21.156;2022-10-31T07:23:01;11.20;99.60
16980;DHT22;42288;52.182;21.156;2022-10-31T07:25:27;10.80;99.80
16980;DHT22;42288;52.182;21.156;2022-10-31T07:27:52;10.60;99.90
16980;DHT22;42288;52.182;21.156;2022-10-31T07:30:18;10.80;99.90
16980;DHT22;42288;52.182;21.156;2022-10-31T07:32:48;10.80;99.90
16980;DHT22;42288;52.182;21.156;2022-10-31T07:35:20;11.00;99.90
16980;DHT22;42288;52.182;21.156;2022-10-31T07:37:45;11.20;99.90
16980;DHT22;42288;52.182;21.156;2022-10-31T07:40:12;11.20;99.90
16980;DHT22;42288;52.182;21.156;2022-10-31T07:42:38;11.10;99.90
16980;DHT22;42288;52.182;21.156;2022-10-31T07:45:05;11.40;99.90
16980;DHT22;42288;52.182;21.156;2022-10-31T07:47:42;11.50;99.90
16980;DHT22;42288;52.182;21.156;2022-10-31T07:50:09;11.80;99.90
16980;DHT22;42288;52.182;21.156;2022-10-31T07:52:35;11.80;99.90
16980;DHT22;42288;52.182;21.156;2022-10-31T07:55:01;12.00;99.90
16980;DHT22;42288;52.182;21.156;2022-10-31T07:57:26;11.90;99.90
16980;DHT22;42288;52.182;21.156;2022-10-31T07:59:52;11.80;99.90
16980;DHT22;42288;52.182;21.156;2022-10-31T08:02:17;11.80;99.90
16980;DHT22;42288;52.182;21.156;2022-10-31T08:04:43;11.90;99.90
16980;DHT22;42288;52.182;21.156;2022-10-31T08:07:08;11.50;99.90
16980;DHT22;42288;52.182;21.156;2022-10-31T08:09:34;11.70;99.90
16980;DHT22;42288;52.182;21.156;2022-10-31T08:11:59;12.00;99.90
16980;DHT22;42288;52.182;21.156;2022-10-31T08:14:25;12.20;99.90
16980;DHT22;42288;52.182;21.156;2022-10-31T08:16:52;12.50;99.90
16980;DHT22;42288;52.182;21.156;2022-10-31T08:19:18;12.70;99.90
16980;DHT22;42288;52.182;21.156;2022-10-31T08:21:44;12.70;99.90
16980;DHT22;42288;52.182;21.156;2022-10-31T08:24:09;12.90;99.90
16980;DHT22;42288;52.182;21.156;2022-10-31T08:26:35;13.20;99.90
16980;DHT22;42288;52.182;21.156;2022-10-31T08:29:00;13.30;99.90
16980;DHT22;42288;52.182;21.156;2022-10-31T08:31:27;13.40;99.90
16980;DHT22;42288;52.182;21.156;2022-10-31T08:33:53;13.50;99.90
16980;DHT22;42288;52.182;21.156;2022-10-31T08:36:20;13.70;99.90
16980;DHT22;42288;52.182;21.156;2022-10-31T08:38:46;13.80;99.80
16980;DHT22;42288;52.182;21.156;2022-10-31T08:41:12;14.00;99.80
16980;DHT22;42288;52.182;21.156;2022-10-31T08:43:37;14.00;99.30
16980;DHT22;42288;52.182;21.156;2022-10-31T08:46:03;14.30;99.20
16980;DHT22;42288;52.182;21.156;2022-10-31T08:48:29;14.40;98.90
16980;DHT22;42288;52.182;21.156;2022-10-31T08:50:56;14.30;98.50
16980;DHT22;42288;52.182;21.156;2022-10-31T08:53:23;14.60;98.60
16980;DHT22;42288;52.182;21.156;2022-10-31T08:55:48;14.40;98.20
16980;DHT22;42288;52.182;21.156;2022-10-31T08:58:18;14.20;98.60
16980;DHT22;42288;52.182;21.156;2022-10-31T09:00:45;14.10;99.00
16980;DHT22;42288;52.182;21.156;2022-10-31T09:03:13;14.20;99.40
16980;DHT22;42288;52.182;21.156;2022-10-31T09:05:40;14.60;99.40
16980;DHT22;42288;52.182;21.156;2022-10-31T09:08:06;14.90;99.10
16980;DHT22;42288;52.182;21.156;2022-10-31T09:10:33;15.10;98.70
16980;DHT22;42288;52.182;21.156;2022-10-31T09:13:07;15.30;98.20
16980;DHT22;42288;52.182;21.156;2022-10-31T09:15:38;15.40;98.10
16980;DHT22;42288;52.182;21.156;2022-10-31T09:18:07;15.40;97.70
16980;DHT22;42288;52.182;21.156;2022-10-31T09:20:35;15.60;97.90
16980;DHT22;42288;52.182;21.156;2022-10-31T09:23:06;15.50;98.00
16980;DHT22;42288;52.182;21.156;2022-10-31T09:25:33;15.80;97.70
16980;DHT22;42288;52.182;21.156;2022-10-31T09:28:01;16.00;96.90
16980;DHT22;42288;52.182;21.156;2022-10-31T09:30:29;16.20;96.90
16980;DHT22;42288;52.182;21.156;2022-10-31T09:32:56;16.40;96.70
16980;DHT22;42288;52.182;21.156;2022-10-31T09:35:22;16.60;96.50
16980;DHT22;42288;52.182;21.156;2022-10-31T09:37:54;16.80;96.00
16980;DHT22;42288;52.182;21.156;2022-10-31T09:40:20;16.50;95.30
16980;DHT22;42288;52.182;21.156;2022-10-31T09:42:53;17.50;95.80
16980;DHT22;42288;52.182;21.156;2022-10-31T09:50:46;20.20;91.60
16980;DHT22;42288;52.182;21.156;2022-10-31T09:53:24;21.10;89.70
16980;DHT22;42288;52.182;21.156;2022-10-31T09:55:51;20.70;88.10
16980;DHT22;42288;52.182;21.156;2022-10-31T09:58:24;21.20;86.00
16980;DHT22;42288;52.182;21.156;2022-10-31T10:00:51;21.60;84.80
16980;DHT22;42288;52.182;21.156;2022-10-31T10:08:33;21.20;84.90
16980;DHT22;42288;52.182;21.156;2022-10-31T10:17:38;25.30;75.30
16980;DHT22;42288;52.182;21.156;2022-10-31T10:20:27;26.50;70.20
16980;DHT22;42288;52.182;21.156;2022-10-31T10:25:44;27.40;60.90
16980;DHT22;42288;52.182;21.156;2022-10-31T10:28:25;27.60;62.50
16980;DHT22;42288;52.182;21.156;2022-10-31T10:31:14;28.10;61.00
16980;DHT22;42288;52.182;21.156;2022-10-31T10:39:21;25.30;60.90
16980;DHT22;42288;52.182;21.156;2022-10-31T10:41:49;24.60;65.20
16980;DHT22;42288;52.182;21.156;2022-10-31T10:44:42;24.40;68.40
16980;DHT22;42288;52.182;21.156;2022-10-31T10:47:31;23.60;67.80
16980;DHT22;42288;52.182;21.156;2022-10-31T10:50:19;23.10;70.00
16980;DHT22;42288;52.182;21.156;2022-10-31T10:55:48;21.60;74.50
16980;DHT22;42288;52.182;21.156;2022-10-31T10:58:16;21.30;76.80
16980;DHT22;42288;52.182;21.156;2022-10-31T11:03:09;22.00;76.70
16980;DHT22;42288;52.182;21.156;2022-10-31T11:05:53;22.00;74.70
16980;DHT22;42288;52.182;21.156;2022-10-31T11:08:33;22.00;75.40
16980;DHT22;42288;52.182;21.156;2022-10-31T11:11:10;21.40;77.00
16980;DHT22;42288;52.182;21.156;2022-10-31T11:13:41;21.10;77.50
16980;DHT22;42288;52.182;21.156;2022-10-31T11:16:09;20.80;79.00
16980;DHT22;42288;52.182;21.156;2022-10-31T11:18:45;20.70;79.80
16980;DHT22;42288;52.182;21.156;2022-10-31T11:21:24;20.20;80.00
16980;DHT22;42288;52.182;21.156;2022-10-31T11:24:02;19.90;80.90
16980;DHT22;42288;52.182;21.156;2022-10-31T11:26:28;19.90;81.00
16980;DHT22;42288;52.182;21.156;2022-10-31T11:28:57;19.00;82.10
16980;DHT22;42288;52.182;21.156;2022-10-31T11:31:24;19.00;83.90
16980;DHT22;42288;52.182;21.156;2022-10-31T11:33:58;18.60;85.20
16980;DHT22;42288;52.182;21.156;2022-10-31T11:36:28;18.60;86.20
16980;DHT22;42288;52.182;21.156;2022-10-31T11:38:54;18.50;86.70
16980;DHT22;42288;52.182;21.156;2022-10-31T11:41:32;18.70;86.50
16980;DHT22;42288;52.182;21.156;2022-10-31T11:44:04;18.80;85.10
16980;DHT22;42288;52.182;21.156;2022-10-31T11:49:00;18.90;84.50
16980;DHT22;42288;52.182;21.156;2022-10-31T11:51:29;19.10;84.80
16980;DHT22;42288;52.182;21.156;2022-10-31T11:53:58;19.40;84.20
16980;DHT22;42288;52.182;21.156;2022-10-31T11:56:24;19.40;84.10
16980;DHT22;42288;52.182;21.156;2022-10-31T11:59:02;19.30;84.50
16980;DHT22;42288;52.182;21.156;2022-10-31T12:01:30;19.20;84.20
16980;DHT22;42288;52.182;21.156;2022-10-31T12:06:35;18.80;83.90
16980;DHT22;42288;52.182;21.156;2022-10-31T12:09:04;19.00;84.00
16980;DHT22;42288;52.182;21.156;2022-10-31T12:11:58;19.00;83.50
16980;DHT22;42288;52.182;21.156;2022-10-31T12:17:15;19.10;81.80
16980;DHT22;42288;52.182;21.156;2022-10-31T12:22:42;19.40;82.20
16980;DHT22;42288;52.182;21.156;2022-10-31T12:31:22;18.80;82.30
16980;DHT22;42288;52.182;21.156;2022-10-31T12:36:47;19.10;83.70
16980;DHT22;42288;52.182;21.156;2022-10-31T12:41:51;19.20;84.50
16980;DHT22;42288;52.182;21.156;2022-10-31T12:47:20;18.90;85.70
16980;DHT22;42288;52.182;21.156;2022-10-31T12:52:56;19.10;86.30
16980;DHT22;42288;52.182;21.156;2022-10-31T12:58:09;19.20;85.80
16980;DHT22;42288;52.182;21.156;2022-10-31T13:00:40;19.30;85.70
16980;DHT22;42288;52.182;21.156;2022-10-31T13:03:29;19.20;86.30
16980;DHT22;42288;52.182;21.156;2022-10-31T13:05:58;19.20;86.80
16980;DHT22;42288;52.182;21.156;2022-10-31T13:08:40;19.10;87.00
16980;DHT22;42288;52.182;21.156;2022-10-31T13:11:33;19.00;87.80
16980;DHT22;42288;52.182;21.156;2022-10-31T13:16:42;19.00;88.40
16980;DHT22;42288;52.182;21.156;2022-10-31T13:19:16;19.00;88.70
16980;DHT22;42288;52.182;21.156;2022-10-31T13:24:38;18.80;89.90
16980;DHT22;42288;52.182;21.156;2022-10-31T13:27:25;18.70;90.30
16980;DHT22;42288;52.182;21.156;2022-10-31T13:30:03;18.80;90.50
16980;DHT22;42288;52.182;21.156;2022-10-31T13:35:27;18.70;90.40
16980;DHT22;42288;52.182;21.156;2022-10-31T13:40:47;18.50;90.80
16980;DHT22;42288;52.182;21.156;2022-10-31T13:43:53;18.40;90.70
16980;DHT22;42288;52.182;21.156;2022-10-31T13:46:44;18.30;91.00
16980;DHT22;42288;52.182;21.156;2022-10-31T13:49:24;18.30;91.00
16980;DHT22;42288;52.182;21.156;2022-10-31T13:51:50;18.30;91.00
16980;DHT22;42288;52.182;21.156;2022-10-31T13:54:34;18.30;90.80
16980;DHT22;42288;52.182;21.156;2022-10-31T13:57:00;18.20;90.90
16980;DHT22;42288;52.182;21.156;2022-10-31T13:59:27;18.20;90.90
16980;DHT22;42288;52.182;21.156;2022-10-31T14:01:59;18.00;91.00
16980;DHT22;42288;52.182;21.156;2022-10-31T14:04:37;18.00;91.40
16980;DHT22;42288;52.182;21.156;2022-10-31T14:07:09;17.80;91.60
16980;DHT22;42288;52.182;21.156;2022-10-31T14:12:10;17.70;91.70
16980;DHT22;42288;52.182;21.156;2022-10-31T14:14:47;17.70;91.90
16980;DHT22;42288;52.182;21.156;2022-10-31T14:17:23;17.60;91.90
16980;DHT22;42288;52.182;21.156;2022-10-31T14:20:02;17.70;92.00
16980;DHT22;42288;52.182;21.156;2022-10-31T14:22:31;17.60;91.90
16980;DHT22;42288;52.182;21.156;2022-10-31T14:24:57;17.50;92.00
16980;DHT22;42288;52.182;21.156;2022-10-31T14:29:51;17.40;92.10
16980;DHT22;42288;52.182;21.156;2022-10-31T14:32:24;17.30;92.20
16980;DHT22;42288;52.182;21.156;2022-10-31T14:34:54;17.30;92.50
16980;DHT22;42288;52.182;21.156;2022-10-31T14:37:40;17.30;92.70
16980;DHT22;42288;52.182;21.156;2022-10-31T14:40:17;17.20;92.80
16980;DHT22;42288;52.182;21.156;2022-10-31T14:43:13;17.00;93.20
16980;DHT22;42288;52.182;21.156;2022-10-31T14:49:08;16.80;93.80
16980;DHT22;42288;52.182;21.156;2022-10-31T14:51:46;16.80;94.30
16980;DHT22;42288;52.182;21.156;2022-10-31T14:54:27;16.70;94.50
16980;DHT22;42288;52.182;21.156;2022-10-31T14:56:56;16.60;94.80
16980;DHT22;42288;52.182;21.156;2022-10-31T14:59:31;16.50;95.10
16980;DHT22;42288;52.182;21.156;2022-10-31T15:02:01;16.30;95.40
16980;DHT22;42288;52.182;21.156;2022-10-31T15:04:29;16.20;95.60
16980;DHT22;42288;52.182;21.156;2022-10-31T15:07:16;16.10;95.70
16980;DHT22;42288;52.182;21.156;2022-10-31T15:09:42;16.00;96.00
16980;DHT22;42288;52.182;21.156;2022-10-31T15:12:32;15.90;96.20
16980;DHT22;42288;52.182;21.156;2022-10-31T15:15:09;15.70;96.60
16980;DHT22;42288;52.182;21.156;2022-10-31T15:17:35;15.60;96.70
16980;DHT22;42288;52.182;21.156;2022-10-31T15:20:01;15.50;96.70
16980;DHT22;42288;52.182;21.156;2022-10-31T15:22:30;15.30;97.00
16980;DHT22;42288;52.182;21.156;2022-10-31T15:24:56;15.30;97.20
16980;DHT22;42288;52.182;21.156;2022-10-31T15:27:23;15.30;97.30
16980;DHT22;42288;52.182;21.156;2022-10-31T15:29:50;15.20;97.30
16980;DHT22;42288;52.182;21.156;2022-10-31T15:32:28;15.10;97.40
16980;DHT22;42288;52.182;21.156;2022-10-31T15:34:55;15.00;97.60
16980;DHT22;42288;52.182;21.156;2022-10-31T15:37:23;14.80;98.00
16980;DHT22;42288;52.182;21.156;2022-10-31T15:39:50;14.80;98.20
16980;DHT22;42288;52.182;21.156;2022-10-31T15:42:32;14.70;98.40
16980;DHT22;42288;52.182;21.156;2022-10-31T15:45:19;14.60;98.40
16980;DHT22;42288;52.182;21.156;2022-10-31T15:47:54;14.70;98.40
16980;DHT22;42288;52.182;21.156;2022-10-31T15:50:30;14.70;98.30
16980;DHT22;42288;52.182;21.156;2022-10-31T15:52:57;14.70;98.40
16980;DHT22;42288;52.182;21.156;2022-10-31T15:55:25;14.50;98.20
16980;DHT22;42288;52.182;21.156;2022-10-31T15:57:56;14.40;98.40
16980;DHT22;42288;52.182;21.156;2022-10-31T16:00:29;14.40;98.30
16980;DHT22;42288;52.182;21.156;2022-10-31T16:05:45;14.30;98.70
16980;DHT22;42288;52.182;21.156;2022-10-31T16:08:33;14.20;98.40
16980;DHT22;42288;52.182;21.156;2022-10-31T16:13:51;14.20;98.70
16980;DHT22;42288;52.182;21.156;2022-10-31T16:16:18;14.20;98.80
16980;DHT22;42288;52.182;21.156;2022-10-31T16:18:45;14.10;99.00
16980;DHT22;42288;52.182;21.156;2022-10-31T16:21:12;14.20;99.20
16980;DHT22;42288;52.182;21.156;2022-10-31T16:23:39;14.10;98.90
16980;DHT22;42288;52.182;21.156;2022-10-31T16:26:09;14.10;99.00
16980;DHT22;42288;52.182;21.156;2022-10-31T16:28:36;14.10;99.40
16980;DHT22;42288;52.182;21.156;2022-10-31T16:31:13;13.80;99.90
16980;DHT22;42288;52.182;21.156;2022-10-31T16:33:39;13.90;99.90
16980;DHT22;42288;52.182;21.156;2022-10-31T16:38:56;13.80;99.90
16980;DHT22;42288;52.182;21.156;2022-10-31T16:41:23;13.90;99.90
16980;DHT22;42288;52.182;21.156;2022-10-31T16:43:49;14.10;99.90
16980;DHT22;42288;52.182;21.156;2022-10-31T16:46:18;13.90;99.90
16980;DHT22;42288;52.182;21.156;2022-10-31T16:48:44;13.80;99.90
16980;DHT22;42288;52.182;21.156;2022-10-31T16:51:09;14.00;99.90
16980;DHT22;42288;52.182;21.156;2022-10-31T16:53:34;14.20;99.90
16980;DHT22;42288;52.182;21.156;2022-10-31T16:56:03;14.40;99.90
16980;DHT22;42288;52.182;21.156;2022-10-31T16:58:31;14.30;99.90
16980;DHT22;42288;52.182;21.156;2022-10-31T17:00:59;14.20;99.90
16980;DHT22;42288;52.182;21.156;2022-10-31T17:03:25;14.40;99.90
16980;DHT22;42288;52.182;21.156;2022-10-31T17:05:50;14.30;99.90
16980;DHT22;42288;52.182;21.156;2022-10-31T17:08:16;14.40;99.90
16980;DHT22;42288;52.182;21.156;2022-10-31T17:10:43;14.60;99.90
16980;DHT22;42288;52.182;21.156;2022-10-31T17:13:14;14.60;99.90
16980;DHT22;42288;52.182;21.156;2022-10-31T17:15:46;14.50;99.90
16980;DHT22;42288;52.182;21.156;2022-10-31T17:18:14;14.60;99.90
16980;DHT22;42288;52.182;21.156;2022-10-31T17:20:40;14.70;99.90
16980;DHT22;42288;52.182;21.156;2022-10-31T17:23:06;14.60;99.90
16980;DHT22;42288;52.182;21.156;2022-10-31T17:25:34;14.60;99.90